sensor_id;sensor_type;location;lat;lon;timestamp;temperature;humidity
8008;DHT22;4049;49.468;11.200;2022-10-14T00:01:01;11.60;99.90
8008;DHT22;4049;49.468;11.200;2022-10-14T00:03:28;11.60;99.90
8008;DHT22;4049;49.468;11.200;2022-10-14T00:05:55;11.60;99.90
8008;DHT22;4049;49.468;11.200;2022-10-14T00:08:22;11.60;99.90
8008;DHT22;4049;49.468;11.200;2022-10-14T00:10:49;11.60;99.90
8008;DHT22;4049;49.468;11.200;2022-10-14T00:13:16;11.60;99.90
8008;DHT22;4049;49.468;11.200;2022-10-14T00:15:43;11.60;99.90
8008;DHT22;4049;49.468;11.200;2022-10-14T00:18:11;11.60;99.90
8008;DHT22;4049;49.468;11.200;2022-10-14T00:20:38;11.60;99.90
8008;DHT22;4049;49.468;11.200;2022-10-14T00:23:04;11.60;99.90
8008;DHT22;4049;49.468;11.200;2022-10-14T00:25:36;11.60;99.90
8008;DHT22;4049;49.468;11.200;2022-10-14T00:28:03;11.60;99.90
8008;DHT22;4049;49.468;11.200;2022-10-14T00:30:30;11.60;99.90
8008;DHT22;4049;49.468;11.200;2022-10-14T00:32:58;11.60;99.90
8008;DHT22;4049;49.468;11.200;2022-10-14T00:35:26;11.60;99.90
8008;DHT22;4049;49.468;11.200;2022-10-14T00:37:53;11.60;99.90
8008;DHT22;4049;49.468;11.200;2022-10-14T00:40:20;11.60;99.90
8008;DHT22;4049;49.468;11.200;2022-10-14T00:42:47;11.60;99.90
8008;DHT22;4049;49.468;11.200;2022-10-14T00:45:15;11.60;99.90
8008;DHT22;4049;49.468;11.200;2022-10-14T00:47:45;11.60;99.90
8008;DHT22;4049;49.468;11.200;2022-10-14T00:50:13;11.60;99.90
8008;DHT22;4049;49.468;11.200;2022-10-14T00:52:43;11.60;99.90
8008;DHT22;4049;49.468;11.200;2022-10-14T00:55:13;11.60;99.90
8008;DHT22;4049;49.468;11.200;2022-10-14T00:57:41;11.60;99.90
8008;DHT22;4049;49.468;11.200;2022-10-14T01:00:10;11.60;99.90
8008;DHT22;4049;49.468;11.200;2022-10-14T01:02:38;11.60;99.90
8008;DHT22;4049;49.468;11.200;2022-10-14T01:05:06;11.60;99.90
8008;DHT22;4049;49.468;11.200;2022-10-14T01:07:43;11.60;99.90
8008;DHT22;4049;49.468;11.200;2022-10-14T01:10:17;11.60;99.90
8008;DHT22;4049;49.468;11.200;2022-10-14T01:12:59;11.60;99.90
8008;DHT22;4049;49.468;11.200;2022-10-14T01:15:34;11.60;99.90
8008;DHT22;4049;49.468;11.200;2022-10-14T01:18:11;11.70;99.90
8008;DHT22;4049;49.468;11.200;2022-10-14T01:20:55;11.70;99.90
8008;DHT22;4049;49.468;11.200;2022-10-14T01:23:42;11.70;99.90
8008;DHT22;4049;49.468;11.200;2022-10-14T01:26:26;11.70;99.90
8008;DHT22;4049;49.468;11.200;2022-10-14T01:29:08;11.70;99.90
8008;DHT22;4049;49.468;11.200;2022-10-14T01:31:44;11.70;99.90
8008;DHT22;4049;49.468;11.200;2022-10-14T01:34:15;11.70;99.90
8008;DHT22;4049;49.468;11.200;2022-10-14T01:36:46;11.70;99.90
8008;DHT22;4049;49.468;11.200;2022-10-14T01:39:17;11.70;99.90
8008;DHT22;4049;49.468;11.200;2022-10-14T01:41:48;11.80;99.90
8008;DHT22;4049;49.468;11.200;2022-10-14T01:44:18;11.70;99.90
8008;DHT22;4049;49.468;11.200;2022-10-14T01:46:51;11.80;99.90
8008;DHT22;4049;49.468;11.200;2022-10-14T01:49:22;11.70;99.90
8008;DHT22;4049;49.468;11.200;2022-10-14T01:51:54;11.70;99.90
8008;DHT22;4049;49.468;11.200;2022-10-14T01:54:26;11.70;99.90
8008;DHT22;4049;49.468;11.200;2022-10-14T01:56:58;11.70;99.90
8008;DHT22;4049;49.468;11.200;2022-10-14T01:59:26;11.70;99.90
8008;DHT22;4049;49.468;11.200;2022-10-14T02:01:54;11.70;99.90
8008;DHT22;4049;49.468;11.200;2022-10-14T02:04:22;11.70;99.90
8008;DHT22;4049;49.468;11.200;2022-10-14T02:06:53;11.70;99.90
8008;DHT22;4049;49.468;11.200;2022-10-14T02:09:25;11.80;99.90
8008;DHT22;4049;49.468;11.200;2022-10-14T02:12:00;11.80;99.90
8008;DHT22;4049;49.468;11.200;2022-10-14T02:14:34;11.80;99.90
8008;DHT22;4049;49.468;11.200;2022-10-14T02:17:09;11.80;99.90
8008;DHT22;4049;49.468;11.200;2022-10-14T02:19:41;11.80;99.90
8008;DHT22;4049;49.468;11.200;2022-10-14T02:22:14;11.80;99.90
8008;DHT22;4049;49.468;11.200;2022-10-14T02:24:48;11.80;99.90
8008;DHT22;4049;49.468;11.200;2022-10-14T02:27:18;11.80;99.90
8008;DHT22;4049;49.468;11.200;2022-10-14T02:29:47;11.80;99.90
8008;DHT22;4049;49.468;11.200;2022-10-14T02:32:18;11.80;99.90
8008;DHT22;4049;49.468;11.200;2022-10-14T02:34:48;11.90;99.90
8008;DHT22;4049;49.468;11.200;2022-10-14T02:37:17;11.90;99.90
8008;DHT22;4049;49.468;11.200;2022-10-14T02:39:48;11.90;99.90
8008;DHT22;4049;49.468;11.200;2022-10-14T02:42:17;11.90;99.90
8008;DHT22;4049;49.468;11.200;2022-10-14T02:44:51;11.90;99.90
8008;DHT22;4049;49.468;11.200;2022-10-14T02:47:20;11.90;99.90
8008;DHT22;4049;49.468;11.200;2022-10-14T02:49:46;11.90;99.90
8008;DHT22;4049;49.468;11.200;2022-10-14T02:52:13;11.90;99.90
8008;DHT22;4049;49.468;11.200;2022-10-14T02:54:40;11.80;99.90
8008;DHT22;4049;49.468;11.200;2022-10-14T02:57:07;11.80;99.90
8008;DHT22;4049;49.468;11.200;2022-10-14T02:59:33;11.80;99.90
8008;DHT22;4049;49.468;11.200;2022-10-14T03:02:00;11.80;99.90
8008;DHT22;4049;49.468;11.200;2022-10-14T03:04:29;11.80;99.90
8008;DHT22;4049;49.468;11.200;2022-10-14T03:06:55;11.80;99.90
8008;DHT22;4049;49.468;11.200;2022-10-14T03:09:22;11.80;99.90
8008;DHT22;4049;49.468;11.200;2022-10-14T03:11:49;11.70;99.90
8008;DHT22;4049;49.468;11.200;2022-10-14T03:14:16;11.70;99.90
8008;DHT22;4049;49.468;11.200;2022-10-14T03:16:42;11.70;99.90
8008;DHT22;4049;49.468;11.200;2022-10-14T03:19:09;11.70;99.90
8008;DHT22;4049;49.468;11.200;2022-10-14T03:21:37;11.70;99.90
8008;DHT22;4049;49.468;11.200;2022-10-14T03:24:05;11.70;99.90
8008;DHT22;4049;49.468;11.200;2022-10-14T03:26:32;11.70;99.90
8008;DHT22;4049;49.468;11.200;2022-10-14T03:28:59;11.70;99.90
8008;DHT22;4049;49.468;11.200;2022-10-14T03:31:26;11.70;99.90
8008;DHT22;4049;49.468;11.200;2022-10-14T03:33:53;11.70;99.90
8008;DHT22;4049;49.468;11.200;2022-10-14T03:36:19;11.70;99.90
8008;DHT22;4049;49.468;11.200;2022-10-14T03:38:48;11.70;99.90
8008;DHT22;4049;49.468;11.200;2022-10-14T03:41:14;11.70;99.90
8008;DHT22;4049;49.468;11.200;2022-10-14T03:43:41;11.70;99.90
8008;DHT22;4049;49.468;11.200;2022-10-14T03:46:08;11.70;99.90
8008;DHT22;4049;49.468;11.200;2022-10-14T03:48:35;11.70;99.90
8008;DHT22;4049;49.468;11.200;2022-10-14T03:51:02;11.70;99.90
8008;DHT22;4049;49.468;11.200;2022-10-14T03:53:28;11.70;99.90
8008;DHT22;4049;49.468;11.200;2022-10-14T03:55:57;11.70;99.90
8008;DHT22;4049;49.468;11.200;2022-10-14T03:58:23;11.70;99.90
8008;DHT22;4049;49.468;11.200;2022-10-14T04:00:50;11.70;99.90
8008;DHT22;4049;49.468;11.200;2022-10-14T04:03:17;11.70;99.90
8008;DHT22;4049;49.468;11.200;2022-10-14T04:05:44;11.70;99.90
8008;DHT22;4049;49.468;11.200;2022-10-14T04:08:11;11.70;99.90
8008;DHT22;4049;49.468;11.200;2022-10-14T04:10:38;11.70;99.90
8008;DHT22;4049;49.468;11.200;2022-10-14T04:13:06;11.70;99.90
8008;DHT22;4049;49.468;11.200;2022-10-14T04:15:34;11.70;99.90
8008;DHT22;4049;49.468;11.200;2022-10-14T04:18:02;11.70;99.90
8008;DHT22;4049;49.468;11.200;2022-10-14T04:20:29;11.70;99.90
8008;DHT22;4049;49.468;11.200;2022-10-14T04:22:58;11.70;99.90
8008;DHT22;4049;49.468;11.200;2022-10-14T04:25:25;11.70;99.90
8008;DHT22;4049;49.468;11.200;2022-10-14T04:27:52;11.70;99.90
8008;DHT22;4049;49.468;11.200;2022-10-14T04:30:20;11.70;99.90
8008;DHT22;4049;49.468;11.200;2022-10-14T04:32:47;11.70;99.90
8008;DHT22;4049;49.468;11.200;2022-10-14T04:35:14;11.70;99.90
8008;DHT22;4049;49.468;11.200;2022-10-14T04:37:41;11.70;99.90
8008;DHT22;4049;49.468;11.200;2022-10-14T04:40:08;11.70;99.90
8008;DHT22;4049;49.468;11.200;2022-10-14T04:42:35;11.70;99.90
8008;DHT22;4049;49.468;11.200;2022-10-14T04:45:03;11.70;99.90
8008;DHT22;4049;49.468;11.200;2022-10-14T04:47:32;11.70;99.90
8008;DHT22;4049;49.468;11.200;2022-10-14T04:49:58;11.70;99.90
8008;DHT22;4049;49.468;11.200;2022-10-14T04:52:25;11.70;99.90
8008;DHT22;4049;49.468;11.200;2022-10-14T04:54:52;11.70;99.90
8008;DHT22;4049;49.468;11.200;2022-10-14T04:57:19;11.70;99.90
8008;DHT22;4049;49.468;11.200;2022-10-14T04:59:46;11.70;99.90
8008;DHT22;4049;49.468;11.200;2022-10-14T05:02:12;11.70;99.90
8008;DHT22;4049;49.468;11.200;2022-10-14T05:04:41;11.70;99.90
8008;DHT22;4049;49.468;11.200;2022-10-14T05:07:07;11.70;99.90
8008;DHT22;4049;49.468;11.200;2022-10-14T05:09:34;11.70;99.90
8008;DHT22;4049;49.468;11.200;2022-10-14T05:12:01;11.70;99.90
8008;DHT22;4049;49.468;11.200;2022-10-14T05:14:28;11.70;99.90
8008;DHT22;4049;49.468;11.200;2022-10-14T05:16:55;11.70;99.90
8008;DHT22;4049;49.468;11.200;2022-10-14T05:19:22;11.70;99.90
8008;DHT22;4049;49.468;11.200;2022-10-14T05:21:51;11.70;99.90
8008;DHT22;4049;49.468;11.200;2022-10-14T05:24:17;11.70;99.90
8008;DHT22;4049;49.468;11.200;2022-10-14T05:26:44;11.70;99.90
8008;DHT22;4049;49.468;11.200;2022-10-14T05:29:11;11.70;99.90
8008;DHT22;4049;49.468;11.200;2022-10-14T05:31:38;11.70;99.90
8008;DHT22;4049;49.468;11.200;2022-10-14T05:34:05;11.70;99.90
8008;DHT22;4049;49.468;11.200;2022-10-14T05:36:32;11.70;99.90
8008;DHT22;4049;49.468;11.200;2022-10-14T05:39:00;11.70;99.90
8008;DHT22;4049;49.468;11.200;2022-10-14T05:41:27;11.70;99.90
8008;DHT22;4049;49.468;11.200;2022-10-14T05:43:54;11.80;99.90
8008;DHT22;4049;49.468;11.200;2022-10-14T05:46:20;11.80;99.90
8008;DHT22;4049;49.468;11.200;2022-10-14T05:48:47;11.80;99.90
8008;DHT22;4049;49.468;11.200;2022-10-14T05:51:14;11.80;99.90
8008;DHT22;4049;49.468;11.200;2022-10-14T05:53:45;11.80;99.90
8008;DHT22;4049;49.468;11.200;2022-10-14T05:56:14;11.80;99.90
8008;DHT22;4049;49.468;11.200;2022-10-14T05:58:40;11.80;99.90
8008;DHT22;4049;49.468;11.200;2022-10-14T06:01:09;11.80;99.90
8008;DHT22;4049;49.468;11.200;2022-10-14T06:03:36;11.80;99.90
8008;DHT22;4049;49.468;11.200;2022-10-14T06:06:03;11.80;99.90
8008;DHT22;4049;49.468;11.200;2022-10-14T06:08:30;11.80;99.90
8008;DHT22;4049;49.468;11.200;2022-10-14T06:10:56;11.80;99.90
8008;DHT22;4049;49.468;11.200;2022-10-14T06:13:25;11.80;99.90
8008;DHT22;4049;49.468;11.200;2022-10-14T06:15:52;11.80;99.90
8008;DHT22;4049;49.468;11.200;2022-10-14T06:18:19;11.80;99.90
8008;DHT22;4049;49.468;11.200;2022-10-14T06:20:50;11.90;99.90
8008;DHT22;4049;49.468;11.200;2022-10-14T06:23:17;11.90;99.90
8008;DHT22;4049;49.468;11.200;2022-10-14T06:25:44;11.90;99.90
8008;DHT22;4049;49.468;11.200;2022-10-14T06:28:11;11.90;99.90
8008;DHT22;4049;49.468;11.200;2022-10-14T06:30:39;11.90;99.90
8008;DHT22;4049;49.468;11.200;2022-10-14T06:33:06;11.90;99.90
8008;DHT22;4049;49.468;11.200;2022-10-14T06:35:33;11.90;99.90
8008;DHT22;4049;49.468;11.200;2022-10-14T06:38:00;11.90;99.90
8008;DHT22;4049;49.468;11.200;2022-10-14T06:40:27;11.90;99.90
8008;DHT22;4049;49.468;11.200;2022-10-14T06:42:54;11.90;99.90
8008;DHT22;4049;49.468;11.200;2022-10-14T06:45:20;12.00;99.90
8008;DHT22;4049;49.468;11.200;2022-10-14T06:47:48;12.00;99.90
8008;DHT22;4049;49.468;11.200;2022-10-14T06:50:15;12.00;99.90
8008;DHT22;4049;49.468;11.200;2022-10-14T06:52:44;12.00;99.90
8008;DHT22;4049;49.468;11.200;2022-10-14T06:55:10;12.00;99.90
8008;DHT22;4049;49.468;11.200;2022-10-14T06:57:38;12.10;99.90
8008;DHT22;4049;49.468;11.200;2022-10-14T07:00:06;12.10;99.90
8008;DHT22;4049;49.468;11.200;2022-10-14T07:02:33;12.10;99.90
8008;DHT22;4049;49.468;11.200;2022-10-14T07:05:01;12.10;99.90
8008;DHT22;4049;49.468;11.200;2022-10-14T07:07:28;12.10;99.90
8008;DHT22;4049;49.468;11.200;2022-10-14T07:09:55;12.10;99.90
8008;DHT22;4049;49.468;11.200;2022-10-14T07:12:23;12.10;99.90
8008;DHT22;4049;49.468;11.200;2022-10-14T07:14:50;12.20;99.90
8008;DHT22;4049;49.468;11.200;2022-10-14T07:17:16;12.20;99.90
8008;DHT22;4049;49.468;11.200;2022-10-14T07:19:43;12.20;99.90
8008;DHT22;4049;49.468;11.200;2022-10-14T07:22:11;12.20;99.90
8008;DHT22;4049;49.468;11.200;2022-10-14T07:24:38;12.20;99.90
8008;DHT22;4049;49.468;11.200;2022-10-14T07:27:07;12.20;99.90
8008;DHT22;4049;49.468;11.200;2022-10-14T07:29:34;12.30;99.90
8008;DHT22;4049;49.468;11.200;2022-10-14T07:32:02;12.30;99.90
8008;DHT22;4049;49.468;11.200;2022-10-14T07:34:29;12.40;99.90
8008;DHT22;4049;49.468;11.200;2022-10-14T07:36:58;12.40;99.90
8008;DHT22;4049;49.468;11.200;2022-10-14T07:39:26;12.50;99.90
8008;DHT22;4049;49.468;11.200;2022-10-14T07:41:53;12.50;99.90
8008;DHT22;4049;49.468;11.200;2022-10-14T07:44:20;12.60;99.90
8008;DHT22;4049;49.468;11.200;2022-10-14T07:46:47;12.60;99.90
8008;DHT22;4049;49.468;11.200;2022-10-14T07:49:16;12.70;99.90
8008;DHT22;4049;49.468;11.200;2022-10-14T07:51:43;12.80;99.90
8008;DHT22;4049;49.468;11.200;2022-10-14T07:54:14;12.80;99.90
8008;DHT22;4049;49.468;11.200;2022-10-14T07:56:43;12.90;99.90
8008;DHT22;4049;49.468;11.200;2022-10-14T07:59:11;12.90;99.90
8008;DHT22;4049;49.468;11.200;2022-10-14T08:01:38;12.90;99.90
8008;DHT22;4049;49.468;11.200;2022-10-14T08:04:05;12.90;99.90
8008;DHT22;4049;49.468;11.200;2022-10-14T08:06:32;12.90;99.90
8008;DHT22;4049;49.468;11.200;2022-10-14T08:08:59;12.90;99.90
8008;DHT22;4049;49.468;11.200;2022-10-14T08:11:27;13.00;99.90
8008;DHT22;4049;49.468;11.200;2022-10-14T08:13:58;12.90;99.90
8008;DHT22;4049;49.468;11.200;2022-10-14T08:16:26;12.90;99.90
8008;DHT22;4049;49.468;11.200;2022-10-14T08:18:55;13.00;99.90
8008;DHT22;4049;49.468;11.200;2022-10-14T08:21:23;13.00;99.90
8008;DHT22;4049;49.468;11.200;2022-10-14T08:23:50;13.00;99.90
8008;DHT22;4049;49.468;11.200;2022-10-14T08:26:20;13.00;99.90
8008;DHT22;4049;49.468;11.200;2022-10-14T08:28:48;13.00;99.90
8008;DHT22;4049;49.468;11.200;2022-10-14T08:31:16;13.00;99.90
8008;DHT22;4049;49.468;11.200;2022-10-14T08:33:43;13.00;99.90
8008;DHT22;4049;49.468;11.200;2022-10-14T08:36:10;13.00;99.90
8008;DHT22;4049;49.468;11.200;2022-10-14T08:38:37;13.00;99.90
8008;DHT22;4049;49.468;11.200;2022-10-14T08:41:15;13.10;99.90
8008;DHT22;4049;49.468;11.200;2022-10-14T08:43:51;13.10;99.90
8008;DHT22;4049;49.468;11.200;2022-10-14T08:46:25;13.10;99.90
8008;DHT22;4049;49.468;11.200;2022-10-14T08:49:01;13.10;99.90
8008;DHT22;4049;49.468;11.200;2022-10-14T08:51:32;13.20;99.90
8008;DHT22;4049;49.468;11.200;2022-10-14T08:54:03;13.30;99.90
8008;DHT22;4049;49.468;11.200;2022-10-14T08:56:35;13.30;99.90
8008;DHT22;4049;49.468;11.200;2022-10-14T08:59:06;13.40;99.90
8008;DHT22;4049;49.468;11.200;2022-10-14T09:01:46;13.50;99.90
8008;DHT22;4049;49.468;11.200;2022-10-14T09:04:15;13.60;99.90
8008;DHT22;4049;49.468;11.200;2022-10-14T09:06:44;13.60;99.90
8008;DHT22;4049;49.468;11.200;2022-10-14T09:09:17;13.80;99.90
8008;DHT22;4049;49.468;11.200;2022-10-14T09:11:49;13.90;99.90
8008;DHT22;4049;49.468;11.200;2022-10-14T09:14:20;13.90;99.90
8008;DHT22;4049;49.468;11.200;2022-10-14T09:16:53;14.00;99.90
8008;DHT22;4049;49.468;11.200;2022-10-14T09:19:27;14.10;99.90
8008;DHT22;4049;49.468;11.200;2022-10-14T09:21:58;14.20;99.90
8008;DHT22;4049;49.468;11.200;2022-10-14T09:24:27;14.30;99.90
8008;DHT22;4049;49.468;11.200;2022-10-14T09:26:59;14.40;99.90
8008;DHT22;4049;49.468;11.200;2022-10-14T09:29:28;14.50;99.90
8008;DHT22;4049;49.468;11.200;2022-10-14T09:32:00;14.60;99.90
8008;DHT22;4049;49.468;11.200;2022-10-14T09:34:34;14.70;99.90
8008;DHT22;4049;49.468;11.200;2022-10-14T09:37:21;14.80;99.90
8008;DHT22;4049;49.468;11.200;2022-10-14T09:39:50;15.00;99.90
8008;DHT22;4049;49.468;11.200;2022-10-14T09:42:20;15.00;99.90
8008;DHT22;4049;49.468;11.200;2022-10-14T09:45:07;15.10;99.90
8008;DHT22;4049;49.468;11.200;2022-10-14T09:47:43;15.20;99.90
8008;DHT22;4049;49.468;11.200;2022-10-14T09:50:19;15.30;99.90
8008;DHT22;4049;49.468;11.200;2022-10-14T09:52:58;15.40;99.90
8008;DHT22;4049;49.468;11.200;2022-10-14T09:55:29;15.50;99.90
8008;DHT22;4049;49.468;11.200;2022-10-14T09:58:02;15.60;99.90
8008;DHT22;4049;49.468;11.200;2022-10-14T10:00:33;15.70;99.90
8008;DHT22;4049;49.468;11.200;2022-10-14T10:03:01;15.80;99.90
8008;DHT22;4049;49.468;11.200;2022-10-14T10:05:30;15.90;99.90
8008;DHT22;4049;49.468;11.200;2022-10-14T10:08:10;15.90;99.90
8008;DHT22;4049;49.468;11.200;2022-10-14T10:10:40;16.00;99.90
8008;DHT22;4049;49.468;11.200;2022-10-14T10:13:20;16.10;99.90
8008;DHT22;4049;49.468;11.200;2022-10-14T10:15:56;16.10;99.90
8008;DHT22;4049;49.468;11.200;2022-10-14T10:18:25;16.10;99.90
8008;DHT22;4049;49.468;11.200;2022-10-14T10:21:05;16.20;99.90
8008;DHT22;4049;49.468;11.200;2022-10-14T10:23:34;16.20;99.90
8008;DHT22;4049;49.468;11.200;2022-10-14T10:26:15;16.20;99.90
8008;DHT22;4049;49.468;11.200;2022-10-14T10:28:46;16.30;99.90
8008;DHT22;4049;49.468;11.200;2022-10-14T10:31:47;16.30;99.90
8008;DHT22;4049;49.468;11.200;2022-10-14T10:37:27;16.40;99.90
8008;DHT22;4049;49.468;11.200;2022-10-14T10:40:16;16.50;99.90
8008;DHT22;4049;49.468;11.200;2022-10-14T10:42:51;16.60;99.90
8008;DHT22;4049;49.468;11.200;2022-10-14T10:45:29;16.80;99.90
8008;DHT22;4049;49.468;11.200;2022-10-14T10:48:07;16.90;99.90
8008;DHT22;4049;49.468;11.200;2022-10-14T10:50:45;17.00;99.90
8008;DHT22;4049;49.468;11.200;2022-10-14T10:53:29;16.90;99.90
8008;DHT22;4049;49.468;11.200;2022-10-14T10:56:14;16.90;99.90
8008;DHT22;4049;49.468;11.200;2022-10-14T10:58:54;16.90;99.90
8008;DHT22;4049;49.468;11.200;2022-10-14T11:01:34;17.00;99.90
8008;DHT22;4049;49.468;11.200;2022-10-14T11:04:17;17.10;99.90
8008;DHT22;4049;49.468;11.200;2022-10-14T11:06:53;17.10;99.90
8008;DHT22;4049;49.468;11.200;2022-10-14T11:09:46;17.20;99.90
8008;DHT22;4049;49.468;11.200;2022-10-14T11:12:52;17.30;99.90
8008;DHT22;4049;49.468;11.200;2022-10-14T11:15:40;17.20;99.90
8008;DHT22;4049;49.468;11.200;2022-10-14T11:18:13;17.20;99.90
8008;DHT22;4049;49.468;11.200;2022-10-14T11:21:02;17.20;99.90
8008;DHT22;4049;49.468;11.200;2022-10-14T11:23:38;17.30;99.90
8008;DHT22;4049;49.468;11.200;2022-10-14T11:26:18;17.30;99.90
8008;DHT22;4049;49.468;11.200;2022-10-14T11:28:52;17.50;99.90
8008;DHT22;4049;49.468;11.200;2022-10-14T11:31:27;17.50;99.90
8008;DHT22;4049;49.468;11.200;2022-10-14T11:34:06;17.60;99.90
8008;DHT22;4049;49.468;11.200;2022-10-14T11:36:45;17.80;99.90
8008;DHT22;4049;49.468;11.200;2022-10-14T11:39:25;17.80;99.90
8008;DHT22;4049;49.468;11.200;2022-10-14T11:42:05;17.90;99.90
8008;DHT22;4049;49.468;11.200;2022-10-14T11:44:40;17.90;99.90
8008;DHT22;4049;49.468;11.200;2022-10-14T11:47:11;17.90;99.90
8008;DHT22;4049;49.468;11.200;2022-10-14T11:49:44;17.80;99.90
8008;DHT22;4049;49.468;11.200;2022-10-14T11:52:16;17.60;99.90
8008;DHT22;4049;49.468;11.200;2022-10-14T11:54:51;17.50;99.90
8008;DHT22;4049;49.468;11.200;2022-10-14T11:57:24;17.50;99.90
8008;DHT22;4049;49.468;11.200;2022-10-14T11:59:58;17.50;99.90
8008;DHT22;4049;49.468;11.200;2022-10-14T12:02:33;17.50;99.90
8008;DHT22;4049;49.468;11.200;2022-10-14T12:05:08;17.50;99.90
8008;DHT22;4049;49.468;11.200;2022-10-14T12:07:39;17.50;99.90
8008;DHT22;4049;49.468;11.200;2022-10-14T12:10:19;17.40;99.90
8008;DHT22;4049;49.468;11.200;2022-10-14T12:12:49;17.40;99.90
8008;DHT22;4049;49.468;11.200;2022-10-14T12:15:20;17.40;99.90
8008;DHT22;4049;49.468;11.200;2022-10-14T12:17:51;17.30;99.90
8008;DHT22;4049;49.468;11.200;2022-10-14T12:20:26;17.30;99.90
8008;DHT22;4049;49.468;11.200;2022-10-14T12:22:55;17.40;99.90
8008;DHT22;4049;49.468;11.200;2022-10-14T12:25:28;17.50;99.90
8008;DHT22;4049;49.468;11.200;2022-10-14T12:27:56;17.50;99.90
8008;DHT22;4049;49.468;11.200;2022-10-14T12:30:31;17.60;99.90
8008;DHT22;4049;49.468;11.200;2022-10-14T12:33:01;17.50;99.90
8008;DHT22;4049;49.468;11.200;2022-10-14T12:35:51;17.50;99.90
8008;DHT22;4049;49.468;11.200;2022-10-14T12:38:19;17.60;99.90
8008;DHT22;4049;49.468;11.200;2022-10-14T12:40:48;17.60;99.90
8008;DHT22;4049;49.468;11.200;2022-10-14T12:43:21;17.60;99.90
8008;DHT22;4049;49.468;11.200;2022-10-14T12:45:55;17.60;99.90
8008;DHT22;4049;49.468;11.200;2022-10-14T12:48:25;17.50;99.90
8008;DHT22;4049;49.468;11.200;2022-10-14T12:50:57;17.40;99.90
8008;DHT22;4049;49.468;11.200;2022-10-14T12:53:32;17.30;99.90
8008;DHT22;4049;49.468;11.200;2022-10-14T12:56:03;17.20;99.90
8008;DHT22;4049;49.468;11.200;2022-10-14T12:58:35;17.20;99.90
8008;DHT22;4049;49.468;11.200;2022-10-14T13:01:05;17.20;99.90
8008;DHT22;4049;49.468;11.200;2022-10-14T13:03:45;17.10;99.90
8008;DHT22;4049;49.468;11.200;2022-10-14T13:06:28;17.10;99.90
8008;DHT22;4049;49.468;11.200;2022-10-14T13:09:32;17.20;99.90
8008;DHT22;4049;49.468;11.200;2022-10-14T13:15:49;17.10;99.90
8008;DHT22;4049;49.468;11.200;2022-10-14T13:18:46;17.10;99.90
8008;DHT22;4049;49.468;11.200;2022-10-14T13:21:28;17.10;99.90
8008;DHT22;4049;49.468;11.200;2022-10-14T13:23:58;17.10;99.90
8008;DHT22;4049;49.468;11.200;2022-10-14T13:26:34;17.10;99.90
8008;DHT22;4049;49.468;11.200;2022-10-14T13:29:14;17.10;99.90
8008;DHT22;4049;49.468;11.200;2022-10-14T13:31:50;17.10;99.90
8008;DHT22;4049;49.468;11.200;2022-10-14T13:34:33;17.10;99.90
8008;DHT22;4049;49.468;11.200;2022-10-14T13:37:28;17.10;99.90
8008;DHT22;4049;49.468;11.200;2022-10-14T13:39:57;17.10;99.90
8008;DHT22;4049;49.468;11.200;2022-10-14T13:42:33;17.10;99.90
8008;DHT22;4049;49.468;11.200;2022-10-14T13:45:05;17.10;99.90
8008;DHT22;4049;49.468;11.200;2022-10-14T13:47:35;17.10;99.90
8008;DHT22;4049;49.468;11.200;2022-10-14T13:50:04;17.10;99.90
8008;DHT22;4049;49.468;11.200;2022-10-14T13:52:32;17.10;99.90
8008;DHT22;4049;49.468;11.200;2022-10-14T13:55:21;17.10;99.90
8008;DHT22;4049;49.468;11.200;2022-10-14T13:58:07;17.00;99.90
8008;DHT22;4049;49.468;11.200;2022-10-14T14:00:36;17.00;99.90
8008;DHT22;4049;49.468;11.200;2022-10-14T14:03:16;17.00;99.90
8008;DHT22;4049;49.468;11.200;2022-10-14T14:05:43;16.90;99.90
8008;DHT22;4049;49.468;11.200;2022-10-14T14:08:16;16.90;99.90
8008;DHT22;4049;49.468;11.200;2022-10-14T14:10:51;16.80;99.90
8008;DHT22;4049;49.468;11.200;2022-10-14T14:13:19;16.80;99.90
8008;DHT22;4049;49.468;11.200;2022-10-14T14:15:48;16.80;99.90
8008;DHT22;4049;49.468;11.200;2022-10-14T14:18:34;16.80;99.90
8008;DHT22;4049;49.468;11.200;2022-10-14T14:21:02;16.90;99.90
8008;DHT22;4049;49.468;11.200;2022-10-14T14:23:29;16.90;99.90
8008;DHT22;4049;49.468;11.200;2022-10-14T14:25:57;17.00;99.90
8008;DHT22;4049;49.468;11.200;2022-10-14T14:28:26;17.00;99.90
8008;DHT22;4049;49.468;11.200;2022-10-14T14:30:55;17.10;99.90
8008;DHT22;4049;49.468;11.200;2022-10-14T14:33:27;17.10;99.90
8008;DHT22;4049;49.468;11.200;2022-10-14T14:35:57;17.10;99.90
8008;DHT22;4049;49.468;11.200;2022-10-14T14:38:27;17.10;99.90
8008;DHT22;4049;49.468;11.200;2022-10-14T14:41:05;17.00;99.90
8008;DHT22;4049;49.468;11.200;2022-10-14T14:43:33;17.00;99.90
8008;DHT22;4049;49.468;11.200;2022-10-14T14:46:02;17.00;99.90
8008;DHT22;4049;49.468;11.200;2022-10-14T14:48:30;16.90;99.90
8008;DHT22;4049;49.468;11.200;2022-10-14T14:51:00;16.90;99.90
8008;DHT22;4049;49.468;11.200;2022-10-14T14:53:27;16.90;99.90
8008;DHT22;4049;49.468;11.200;2022-10-14T14:56:01;16.90;99.90
8008;DHT22;4049;49.468;11.200;2022-10-14T14:58:32;16.80;99.90
8008;DHT22;4049;49.468;11.200;2022-10-14T15:00:59;16.80;99.90
8008;DHT22;4049;49.468;11.200;2022-10-14T15:03:30;16.80;99.90
8008;DHT22;4049;49.468;11.200;2022-10-14T15:06:00;16.70;99.90
8008;DHT22;4049;49.468;11.200;2022-10-14T15:08:29;16.70;99.90
8008;DHT22;4049;49.468;11.200;2022-10-14T15:10:57;16.60;99.90
8008;DHT22;4049;49.468;11.200;2022-10-14T15:13:30;16.60;99.90
8008;DHT22;4049;49.468;11.200;2022-10-14T15:15:57;16.60;99.90
8008;DHT22;4049;49.468;11.200;2022-10-14T15:18:25;16.50;99.90
8008;DHT22;4049;49.468;11.200;2022-10-14T15:21:10;16.50;99.90
8008;DHT22;4049;49.468;11.200;2022-10-14T15:23:42;16.50;99.90
8008;DHT22;4049;49.468;11.200;2022-10-14T15:26:30;16.50;99.90
8008;DHT22;4049;49.468;11.200;2022-10-14T15:29:13;16.40;99.90
8008;DHT22;4049;49.468;11.200;2022-10-14T15:31:42;16.40;99.90
8008;DHT22;4049;49.468;11.200;2022-10-14T15:34:20;16.40;99.90
8008;DHT22;4049;49.468;11.200;2022-10-14T15:36:51;16.40;99.90
8008;DHT22;4049;49.468;11.200;2022-10-14T15:39:19;16.40;99.90
8008;DHT22;4049;49.468;11.200;2022-10-14T15:41:46;16.30;99.90
8008;DHT22;4049;49.468;11.200;2022-10-14T15:44:13;16.30;99.90
8008;DHT22;4049;49.468;11.200;2022-10-14T15:46:44;16.30;99.90
8008;DHT22;4049;49.468;11.200;2022-10-14T15:49:31;16.30;99.90
8008;DHT22;4049;49.468;11.200;2022-10-14T15:52:00;16.30;99.90
8008;DHT22;4049;49.468;11.200;2022-10-14T15:54:27;16.20;99.90
8008;DHT22;4049;49.468;11.200;2022-10-14T15:56:54;16.20;99.90
8008;DHT22;4049;49.468;11.200;2022-10-14T15:59:21;16.20;99.90
8008;DHT22;4049;49.468;11.200;2022-10-14T16:01:49;16.20;99.90
8008;DHT22;4049;49.468;11.200;2022-10-14T16:04:17;16.20;99.90
8008;DHT22;4049;49.468;11.200;2022-10-14T16:06:47;16.10;99.90
8008;DHT22;4049;49.468;11.200;2022-10-14T16:09:15;16.10;99.90
8008;DHT22;4049;49.468;11.200;2022-10-14T16:11:42;16.10;99.90
8008;DHT22;4049;49.468;11.200;2022-10-14T16:14:09;16.10;99.90
8008;DHT22;4049;49.468;11.200;2022-10-14T16:16:40;16.10;99.90